Terminal Aerodrome Forecast
Issued by NWS

Home | Current Version | Previous Version | Text Only | Print | Product List | Glossary On
Versions: 1 2 3 4 5 6 7 8 9 10 11 12 13 14 15 16 17 18 19 20 21 22 23
000
FTUS45 KREV 272300
TAFTRK
TAF
KTRK 272320Z 2800/2824 24014G22KT 6SM -SHRASN SCT025 OVC050
     FM280100 27007KT 4SM -SHSN BKN020 OVC035
     FM281200 VRB03KT 1SM -SN BKN007 OVC012
     FM281800 VRB04KT 3SM -SHSN SCT010 OVC020=

USA.gov is the U.S. government's official web portal to all federal, state and local government web resources and services.